sensor_id;sensor_type;location;lat;lon;timestamp;P1;durP1;ratioP1;P2;durP2;ratioP2
47960;SDS011;33721;48.852;9.936;2023-03-01T00:02:05;52.72;;;17.85;;
47960;SDS011;33721;48.852;9.936;2023-03-01T00:04:31;48.63;;;17.23;;
47960;SDS011;33721;48.852;9.936;2023-03-01T00:06:57;49.13;;;17.58;;
47960;SDS011;33721;48.852;9.936;2023-03-01T00:09:23;46.10;;;16.48;;
47960;SDS011;33721;48.852;9.936;2023-03-01T00:11:48;48.08;;;17.65;;
47960;SDS011;33721;48.852;9.936;2023-03-01T00:14:14;45.22;;;16.17;;
47960;SDS011;33721;48.852;9.936;2023-03-01T00:16:42;48.67;;;16.83;;
47960;SDS011;33721;48.852;9.936;2023-03-01T00:19:12;46.58;;;17.20;;
47960;SDS011;33721;48.852;9.936;2023-03-01T00:21:39;48.30;;;17.10;;
47960;SDS011;33721;48.852;9.936;2023-03-01T00:24:05;50.88;;;16.92;;
47960;SDS011;33721;48.852;9.936;2023-03-01T00:26:31;47.00;;;16.63;;
47960;SDS011;33721;48.852;9.936;2023-03-01T00:28:57;43.92;;;16.27;;
47960;SDS011;33721;48.852;9.936;2023-03-01T00:31:24;45.97;;;16.77;;
47960;SDS011;33721;48.852;9.936;2023-03-01T00:33:53;45.72;;;17.83;;
47960;SDS011;33721;48.852;9.936;2023-03-01T00:36:22;44.03;;;16.33;;
47960;SDS011;33721;48.852;9.936;2023-03-01T00:38:52;47.60;;;16.52;;
47960;SDS011;33721;48.852;9.936;2023-03-01T00:41:18;47.28;;;17.17;;
47960;SDS011;33721;48.852;9.936;2023-03-01T00:43:45;48.58;;;16.35;;
47960;SDS011;33721;48.852;9.936;2023-03-01T00:46:12;43.22;;;15.90;;
47960;SDS011;33721;48.852;9.936;2023-03-01T00:48:39;43.20;;;16.15;;
47960;SDS011;33721;48.852;9.936;2023-03-01T00:51:10;44.17;;;16.02;;
47960;SDS011;33721;48.852;9.936;2023-03-01T00:53:40;48.90;;;17.33;;
47960;SDS011;33721;48.852;9.936;2023-03-01T00:56:07;44.03;;;16.75;;
47960;SDS011;33721;48.852;9.936;2023-03-01T00:58:35;49.05;;;17.02;;
47960;SDS011;33721;48.852;9.936;2023-03-01T01:01:06;46.47;;;16.52;;
47960;SDS011;33721;48.852;9.936;2023-03-01T01:03:42;48.83;;;17.33;;
47960;SDS011;33721;48.852;9.936;2023-03-01T01:06:25;48.63;;;17.05;;
47960;SDS011;33721;48.852;9.936;2023-03-01T01:08:53;49.63;;;17.77;;
47960;SDS011;33721;48.852;9.936;2023-03-01T01:11:20;49.67;;;17.55;;
47960;SDS011;33721;48.852;9.936;2023-03-01T01:13:48;54.33;;;17.70;;
47960;SDS011;33721;48.852;9.936;2023-03-01T01:16:14;52.45;;;18.17;;
47960;SDS011;33721;48.852;9.936;2023-03-01T01:18:41;51.28;;;17.73;;
47960;SDS011;33721;48.852;9.936;2023-03-01T01:21:08;48.85;;;17.90;;
47960;SDS011;33721;48.852;9.936;2023-03-01T01:23:37;48.08;;;17.75;;
47960;SDS011;33721;48.852;9.936;2023-03-01T01:26:05;53.47;;;17.70;;
47960;SDS011;33721;48.852;9.936;2023-03-01T01:28:31;46.83;;;17.73;;
47960;SDS011;33721;48.852;9.936;2023-03-01T01:30:57;48.58;;;17.85;;
47960;SDS011;33721;48.852;9.936;2023-03-01T01:33:23;47.40;;;16.48;;
47960;SDS011;33721;48.852;9.936;2023-03-01T01:35:48;45.33;;;16.77;;
47960;SDS011;33721;48.852;9.936;2023-03-01T01:38:14;48.03;;;18.20;;
47960;SDS011;33721;48.852;9.936;2023-03-01T01:40:46;47.80;;;17.25;;
47960;SDS011;33721;48.852;9.936;2023-03-01T01:43:29;50.97;;;17.50;;
47960;SDS011;33721;48.852;9.936;2023-03-01T01:45:59;45.05;;;16.70;;
47960;SDS011;33721;48.852;9.936;2023-03-01T01:48:42;52.35;;;18.33;;
47960;SDS011;33721;48.852;9.936;2023-03-01T01:51:13;50.20;;;16.80;;
47960;SDS011;33721;48.852;9.936;2023-03-01T01:53:43;52.58;;;17.35;;
47960;SDS011;33721;48.852;9.936;2023-03-01T01:56:12;45.47;;;16.25;;
47960;SDS011;33721;48.852;9.936;2023-03-01T01:58:40;52.60;;;17.63;;
47960;SDS011;33721;48.852;9.936;2023-03-01T02:01:08;48.58;;;17.73;;
47960;SDS011;33721;48.852;9.936;2023-03-01T02:03:34;52.25;;;18.13;;
47960;SDS011;33721;48.852;9.936;2023-03-01T02:06:11;46.90;;;17.17;;
47960;SDS011;33721;48.852;9.936;2023-03-01T02:08:43;45.45;;;16.17;;
47960;SDS011;33721;48.852;9.936;2023-03-01T02:11:11;61.70;;;17.67;;
47960;SDS011;33721;48.852;9.936;2023-03-01T02:13:39;46.05;;;15.98;;
47960;SDS011;33721;48.852;9.936;2023-03-01T02:16:11;45.80;;;17.13;;
47960;SDS011;33721;48.852;9.936;2023-03-01T02:18:39;50.97;;;18.02;;
47960;SDS011;33721;48.852;9.936;2023-03-01T02:23:55;49.05;;;16.92;;
47960;SDS011;33721;48.852;9.936;2023-03-01T02:29:07;48.42;;;16.38;;
47960;SDS011;33721;48.852;9.936;2023-03-01T02:31:33;48.55;;;17.00;;
47960;SDS011;33721;48.852;9.936;2023-03-01T02:39:26;49.33;;;18.27;;
47960;SDS011;33721;48.852;9.936;2023-03-01T02:41:56;49.42;;;17.60;;
47960;SDS011;33721;48.852;9.936;2023-03-01T02:44:24;48.67;;;17.83;;
47960;SDS011;33721;48.852;9.936;2023-03-01T02:46:50;49.25;;;17.60;;
47960;SDS011;33721;48.852;9.936;2023-03-01T02:49:19;47.13;;;17.45;;
47960;SDS011;33721;48.852;9.936;2023-03-01T02:54:52;49.57;;;17.93;;
47960;SDS011;33721;48.852;9.936;2023-03-01T02:57:23;48.15;;;17.13;;
47960;SDS011;33721;48.852;9.936;2023-03-01T02:59:52;51.40;;;18.00;;
47960;SDS011;33721;48.852;9.936;2023-03-01T03:02:21;51.63;;;18.02;;
47960;SDS011;33721;48.852;9.936;2023-03-01T03:05:10;55.83;;;18.98;;
47960;SDS011;33721;48.852;9.936;2023-03-01T03:07:43;54.55;;;18.15;;
47960;SDS011;33721;48.852;9.936;2023-03-01T03:10:11;55.92;;;18.98;;
47960;SDS011;33721;48.852;9.936;2023-03-01T03:12:44;47.22;;;18.10;;
47960;SDS011;33721;48.852;9.936;2023-03-01T03:15:14;54.43;;;19.03;;
47960;SDS011;33721;48.852;9.936;2023-03-01T03:17:40;54.30;;;17.85;;
47960;SDS011;33721;48.852;9.936;2023-03-01T03:20:08;51.40;;;17.92;;
47960;SDS011;33721;48.852;9.936;2023-03-01T03:22:40;51.13;;;19.40;;
47960;SDS011;33721;48.852;9.936;2023-03-01T03:25:07;52.17;;;18.02;;
47960;SDS011;33721;48.852;9.936;2023-03-01T03:27:39;49.90;;;17.65;;
47960;SDS011;33721;48.852;9.936;2023-03-01T03:30:07;49.75;;;17.58;;
47960;SDS011;33721;48.852;9.936;2023-03-01T03:32:37;44.95;;;16.67;;
47960;SDS011;33721;48.852;9.936;2023-03-01T03:35:04;50.92;;;18.67;;
47960;SDS011;33721;48.852;9.936;2023-03-01T03:37:43;51.80;;;17.83;;
47960;SDS011;33721;48.852;9.936;2023-03-01T03:40:28;50.65;;;17.67;;
47960;SDS011;33721;48.852;9.936;2023-03-01T03:43:14;51.50;;;17.90;;
47960;SDS011;33721;48.852;9.936;2023-03-01T03:45:45;53.67;;;18.70;;
47960;SDS011;33721;48.852;9.936;2023-03-01T03:48:11;48.13;;;17.20;;
47960;SDS011;33721;48.852;9.936;2023-03-01T03:50:40;46.75;;;17.83;;
47960;SDS011;33721;48.852;9.936;2023-03-01T03:53:07;49.92;;;18.60;;
47960;SDS011;33721;48.852;9.936;2023-03-01T03:55:35;53.17;;;17.95;;
47960;SDS011;33721;48.852;9.936;2023-03-01T03:58:04;51.63;;;18.48;;
47960;SDS011;33721;48.852;9.936;2023-03-01T04:03:01;43.95;;;16.25;;
47960;SDS011;33721;48.852;9.936;2023-03-01T04:05:27;47.47;;;17.98;;
47960;SDS011;33721;48.852;9.936;2023-03-01T04:07:53;49.00;;;17.23;;
47960;SDS011;33721;48.852;9.936;2023-03-01T04:10:29;48.05;;;18.17;;
47960;SDS011;33721;48.852;9.936;2023-03-01T04:12:57;49.80;;;17.90;;
47960;SDS011;33721;48.852;9.936;2023-03-01T04:15:25;49.78;;;17.40;;
47960;SDS011;33721;48.852;9.936;2023-03-01T04:17:52;51.05;;;18.67;;
47960;SDS011;33721;48.852;9.936;2023-03-01T04:20:21;51.83;;;18.48;;
47960;SDS011;33721;48.852;9.936;2023-03-01T04:22:52;52.17;;;17.70;;
47960;SDS011;33721;48.852;9.936;2023-03-01T04:28:23;51.38;;;18.38;;
47960;SDS011;33721;48.852;9.936;2023-03-01T04:30:51;51.22;;;18.08;;
47960;SDS011;33721;48.852;9.936;2023-03-01T04:33:18;54.97;;;18.60;;
47960;SDS011;33721;48.852;9.936;2023-03-01T04:35:44;49.83;;;19.38;;
47960;SDS011;33721;48.852;9.936;2023-03-01T04:38:10;58.28;;;21.40;;
47960;SDS011;33721;48.852;9.936;2023-03-01T04:40:36;52.47;;;19.75;;
47960;SDS011;33721;48.852;9.936;2023-03-01T04:43:02;58.47;;;20.85;;
47960;SDS011;33721;48.852;9.936;2023-03-01T04:45:28;55.22;;;22.13;;
47960;SDS011;33721;48.852;9.936;2023-03-01T04:47:54;50.75;;;19.33;;
47960;SDS011;33721;48.852;9.936;2023-03-01T04:50:23;54.97;;;20.35;;
47960;SDS011;33721;48.852;9.936;2023-03-01T04:52:51;56.00;;;20.45;;
47960;SDS011;33721;48.852;9.936;2023-03-01T04:55:17;59.35;;;20.02;;
47960;SDS011;33721;48.852;9.936;2023-03-01T04:57:43;54.83;;;19.92;;
47960;SDS011;33721;48.852;9.936;2023-03-01T05:00:12;54.35;;;20.38;;
47960;SDS011;33721;48.852;9.936;2023-03-01T05:02:46;54.58;;;20.38;;
47960;SDS011;33721;48.852;9.936;2023-03-01T05:05:21;47.72;;;17.75;;
47960;SDS011;33721;48.852;9.936;2023-03-01T05:07:59;54.00;;;20.05;;
47960;SDS011;33721;48.852;9.936;2023-03-01T05:10:27;48.78;;;17.65;;
47960;SDS011;33721;48.852;9.936;2023-03-01T05:12:55;51.90;;;19.33;;
47960;SDS011;33721;48.852;9.936;2023-03-01T05:15:22;54.50;;;19.17;;
47960;SDS011;33721;48.852;9.936;2023-03-01T05:17:52;54.08;;;20.20;;
47960;SDS011;33721;48.852;9.936;2023-03-01T05:20:19;52.83;;;19.48;;
47960;SDS011;33721;48.852;9.936;2023-03-01T05:22:47;56.15;;;20.08;;
47960;SDS011;33721;48.852;9.936;2023-03-01T05:25:14;51.05;;;19.67;;
47960;SDS011;33721;48.852;9.936;2023-03-01T05:27:39;50.97;;;18.85;;
47960;SDS011;33721;48.852;9.936;2023-03-01T05:30:05;55.22;;;20.23;;
47960;SDS011;33721;48.852;9.936;2023-03-01T05:32:46;56.22;;;19.63;;
47960;SDS011;33721;48.852;9.936;2023-03-01T05:35:14;53.67;;;20.00;;
47960;SDS011;33721;48.852;9.936;2023-03-01T05:37:45;52.45;;;18.95;;
47960;SDS011;33721;48.852;9.936;2023-03-01T05:40:13;56.38;;;20.02;;
47960;SDS011;33721;48.852;9.936;2023-03-01T05:42:51;54.00;;;19.48;;
47960;SDS011;33721;48.852;9.936;2023-03-01T05:45:22;56.63;;;20.70;;
47960;SDS011;33721;48.852;9.936;2023-03-01T05:47:49;54.42;;;20.58;;
47960;SDS011;33721;48.852;9.936;2023-03-01T05:52:46;60.33;;;20.25;;
47960;SDS011;33721;48.852;9.936;2023-03-01T05:55:13;53.30;;;19.50;;
47960;SDS011;33721;48.852;9.936;2023-03-01T05:57:40;57.03;;;19.73;;
47960;SDS011;33721;48.852;9.936;2023-03-01T06:00:06;50.50;;;19.33;;
47960;SDS011;33721;48.852;9.936;2023-03-01T06:02:35;53.97;;;19.48;;
47960;SDS011;33721;48.852;9.936;2023-03-01T06:05:00;54.72;;;18.95;;
47960;SDS011;33721;48.852;9.936;2023-03-01T06:07:30;50.60;;;19.02;;
47960;SDS011;33721;48.852;9.936;2023-03-01T06:09:56;60.63;;;20.38;;
47960;SDS011;33721;48.852;9.936;2023-03-01T06:12:22;55.33;;;20.23;;
47960;SDS011;33721;48.852;9.936;2023-03-01T06:14:47;62.50;;;21.40;;
47960;SDS011;33721;48.852;9.936;2023-03-01T06:17:13;50.97;;;19.38;;
47960;SDS011;33721;48.852;9.936;2023-03-01T06:19:39;55.60;;;19.55;;
47960;SDS011;33721;48.852;9.936;2023-03-01T06:22:05;56.50;;;20.40;;
47960;SDS011;33721;48.852;9.936;2023-03-01T06:24:30;63.78;;;21.30;;
47960;SDS011;33721;48.852;9.936;2023-03-01T06:26:56;60.40;;;21.05;;
47960;SDS011;33721;48.852;9.936;2023-03-01T06:29:22;58.10;;;20.45;;
47960;SDS011;33721;48.852;9.936;2023-03-01T06:31:48;59.20;;;20.67;;
47960;SDS011;33721;48.852;9.936;2023-03-01T06:34:14;61.38;;;19.88;;
47960;SDS011;33721;48.852;9.936;2023-03-01T06:36:40;62.80;;;21.42;;
47960;SDS011;33721;48.852;9.936;2023-03-01T06:39:05;60.67;;;19.98;;
47960;SDS011;33721;48.852;9.936;2023-03-01T06:41:34;62.22;;;21.58;;
47960;SDS011;33721;48.852;9.936;2023-03-01T06:44:00;52.28;;;19.33;;
47960;SDS011;33721;48.852;9.936;2023-03-01T06:46:25;55.70;;;19.63;;
47960;SDS011;33721;48.852;9.936;2023-03-01T06:48:51;62.67;;;20.30;;
47960;SDS011;33721;48.852;9.936;2023-03-01T06:51:17;56.03;;;19.00;;
47960;SDS011;33721;48.852;9.936;2023-03-01T06:53:42;53.83;;;18.92;;
47960;SDS011;33721;48.852;9.936;2023-03-01T06:56:08;62.70;;;20.55;;
47960;SDS011;33721;48.852;9.936;2023-03-01T06:58:33;53.45;;;18.60;;
47960;SDS011;33721;48.852;9.936;2023-03-01T07:00:59;61.75;;;20.73;;
47960;SDS011;33721;48.852;9.936;2023-03-01T07:03:25;52.63;;;19.10;;
47960;SDS011;33721;48.852;9.936;2023-03-01T07:05:51;59.53;;;20.02;;
47960;SDS011;33721;48.852;9.936;2023-03-01T07:08:17;60.35;;;21.02;;
47960;SDS011;33721;48.852;9.936;2023-03-01T07:10:43;54.67;;;19.38;;
47960;SDS011;33721;48.852;9.936;2023-03-01T07:13:09;66.40;;;22.02;;
47960;SDS011;33721;48.852;9.936;2023-03-01T07:15:35;55.85;;;19.20;;
47960;SDS011;33721;48.852;9.936;2023-03-01T07:18:00;61.58;;;23.20;;
47960;SDS011;33721;48.852;9.936;2023-03-01T07:20:26;61.03;;;21.73;;
47960;SDS011;33721;48.852;9.936;2023-03-01T07:22:52;64.60;;;25.25;;
47960;SDS011;33721;48.852;9.936;2023-03-01T07:25:19;57.85;;;19.80;;
47960;SDS011;33721;48.852;9.936;2023-03-01T07:27:48;59.95;;;22.92;;
47960;SDS011;33721;48.852;9.936;2023-03-01T07:30:15;55.72;;;21.17;;
47960;SDS011;33721;48.852;9.936;2023-03-01T07:32:41;55.50;;;18.88;;
47960;SDS011;33721;48.852;9.936;2023-03-01T07:35:07;58.58;;;19.88;;
47960;SDS011;33721;48.852;9.936;2023-03-01T07:37:33;67.30;;;22.30;;
47960;SDS011;33721;48.852;9.936;2023-03-01T07:39:58;63.63;;;21.42;;
47960;SDS011;33721;48.852;9.936;2023-03-01T07:42:24;53.53;;;17.92;;
47960;SDS011;33721;48.852;9.936;2023-03-01T07:44:50;50.70;;;19.42;;
47960;SDS011;33721;48.852;9.936;2023-03-01T07:47:15;65.90;;;22.80;;
47960;SDS011;33721;48.852;9.936;2023-03-01T07:49:41;66.28;;;22.10;;
47960;SDS011;33721;48.852;9.936;2023-03-01T07:52:09;69.20;;;22.55;;
47960;SDS011;33721;48.852;9.936;2023-03-01T07:54:35;53.65;;;18.58;;
47960;SDS011;33721;48.852;9.936;2023-03-01T07:57:01;59.08;;;20.10;;
47960;SDS011;33721;48.852;9.936;2023-03-01T07:59:26;58.63;;;19.98;;
47960;SDS011;33721;48.852;9.936;2023-03-01T08:01:54;57.08;;;19.63;;
47960;SDS011;33721;48.852;9.936;2023-03-01T08:04:21;51.40;;;19.55;;
47960;SDS011;33721;48.852;9.936;2023-03-01T08:06:47;59.22;;;18.55;;
47960;SDS011;33721;48.852;9.936;2023-03-01T08:09:12;54.50;;;19.00;;
47960;SDS011;33721;48.852;9.936;2023-03-01T08:11:38;57.00;;;19.15;;
47960;SDS011;33721;48.852;9.936;2023-03-01T08:14:03;61.25;;;19.73;;
47960;SDS011;33721;48.852;9.936;2023-03-01T08:16:30;57.92;;;19.35;;
47960;SDS011;33721;48.852;9.936;2023-03-01T08:18:57;56.03;;;20.25;;
47960;SDS011;33721;48.852;9.936;2023-03-01T08:21:26;55.45;;;18.35;;
47960;SDS011;33721;48.852;9.936;2023-03-01T08:23:52;56.58;;;19.38;;
47960;SDS011;33721;48.852;9.936;2023-03-01T08:26:19;54.28;;;19.23;;
47960;SDS011;33721;48.852;9.936;2023-03-01T08:28:46;50.95;;;17.92;;
47960;SDS011;33721;48.852;9.936;2023-03-01T08:31:14;57.20;;;19.52;;
47960;SDS011;33721;48.852;9.936;2023-03-01T08:33:49;53.67;;;18.00;;
47960;SDS011;33721;48.852;9.936;2023-03-01T08:36:28;59.78;;;18.67;;
47960;SDS011;33721;48.852;9.936;2023-03-01T08:38:57;47.92;;;18.48;;
47960;SDS011;33721;48.852;9.936;2023-03-01T08:41:23;57.58;;;19.27;;
47960;SDS011;33721;48.852;9.936;2023-03-01T08:43:50;59.63;;;20.33;;
47960;SDS011;33721;48.852;9.936;2023-03-01T08:46:16;56.03;;;19.08;;
47960;SDS011;33721;48.852;9.936;2023-03-01T08:48:41;60.80;;;20.77;;
47960;SDS011;33721;48.852;9.936;2023-03-01T08:51:13;59.88;;;20.55;;
47960;SDS011;33721;48.852;9.936;2023-03-01T08:53:40;58.47;;;21.05;;
47960;SDS011;33721;48.852;9.936;2023-03-01T08:56:06;57.63;;;20.60;;
47960;SDS011;33721;48.852;9.936;2023-03-01T08:58:33;60.80;;;21.13;;
47960;SDS011;33721;48.852;9.936;2023-03-01T09:00:59;52.42;;;20.02;;
47960;SDS011;33721;48.852;9.936;2023-03-01T09:03:25;55.28;;;19.77;;
47960;SDS011;33721;48.852;9.936;2023-03-01T09:05:51;54.85;;;20.05;;
47960;SDS011;33721;48.852;9.936;2023-03-01T09:08:17;58.88;;;21.20;;
47960;SDS011;33721;48.852;9.936;2023-03-01T09:10:43;61.65;;;20.95;;
47960;SDS011;33721;48.852;9.936;2023-03-01T09:13:09;56.85;;;20.70;;
47960;SDS011;33721;48.852;9.936;2023-03-01T09:15:37;58.17;;;19.90;;
47960;SDS011;33721;48.852;9.936;2023-03-01T09:18:03;53.28;;;19.05;;
47960;SDS011;33721;48.852;9.936;2023-03-01T09:20:29;53.22;;;19.40;;
47960;SDS011;33721;48.852;9.936;2023-03-01T09:22:56;49.08;;;19.65;;
47960;SDS011;33721;48.852;9.936;2023-03-01T09:25:21;49.10;;;18.98;;
47960;SDS011;33721;48.852;9.936;2023-03-01T09:27:49;48.47;;;18.92;;
47960;SDS011;33721;48.852;9.936;2023-03-01T09:30:16;45.58;;;16.73;;
47960;SDS011;33721;48.852;9.936;2023-03-01T09:32:42;53.47;;;18.80;;
47960;SDS011;33721;48.852;9.936;2023-03-01T09:35:09;48.67;;;18.45;;
47960;SDS011;33721;48.852;9.936;2023-03-01T09:37:36;48.00;;;18.20;;
47960;SDS011;33721;48.852;9.936;2023-03-01T09:40:03;50.10;;;19.15;;
47960;SDS011;33721;48.852;9.936;2023-03-01T09:42:31;49.97;;;20.08;;
47960;SDS011;33721;48.852;9.936;2023-03-01T09:45:00;56.88;;;19.70;;
47960;SDS011;33721;48.852;9.936;2023-03-01T09:47:30;48.08;;;18.52;;
47960;SDS011;33721;48.852;9.936;2023-03-01T09:53:03;53.53;;;20.38;;
47960;SDS011;33721;48.852;9.936;2023-03-01T09:55:37;46.92;;;19.17;;
47960;SDS011;33721;48.852;9.936;2023-03-01T10:00:45;45.63;;;17.45;;
47960;SDS011;33721;48.852;9.936;2023-03-01T10:11:17;43.83;;;17.75;;
47960;SDS011;33721;48.852;9.936;2023-03-01T10:16:26;43.88;;;17.15;;
47960;SDS011;33721;48.852;9.936;2023-03-01T10:19:01;47.72;;;17.63;;
47960;SDS011;33721;48.852;9.936;2023-03-01T10:21:29;40.63;;;16.77;;
47960;SDS011;33721;48.852;9.936;2023-03-01T10:23:56;46.92;;;18.02;;
47960;SDS011;33721;48.852;9.936;2023-03-01T10:27:16;46.88;;;18.58;;
47960;SDS011;33721;48.852;9.936;2023-03-01T10:29:25;45.80;;;17.90;;
47960;SDS011;33721;48.852;9.936;2023-03-01T10:31:56;47.55;;;18.08;;
47960;SDS011;33721;48.852;9.936;2023-03-01T10:34:30;48.63;;;17.45;;
47960;SDS011;33721;48.852;9.936;2023-03-01T10:37:09;50.55;;;19.23;;
47960;SDS011;33721;48.852;9.936;2023-03-01T10:42:34;42.97;;;17.13;;
47960;SDS011;33721;48.852;9.936;2023-03-01T10:53:28;46.25;;;17.90;;
47960;SDS011;33721;48.852;9.936;2023-03-01T10:56:01;45.20;;;18.20;;
47960;SDS011;33721;48.852;9.936;2023-03-01T11:03:54;45.83;;;17.33;;
47960;SDS011;33721;48.852;9.936;2023-03-01T11:06:39;40.40;;;17.13;;
47960;SDS011;33721;48.852;9.936;2023-03-01T11:09:15;46.50;;;17.52;;
47960;SDS011;33721;48.852;9.936;2023-03-01T11:11:45;49.58;;;18.55;;
47960;SDS011;33721;48.852;9.936;2023-03-01T11:14:18;40.03;;;17.23;;
47960;SDS011;33721;48.852;9.936;2023-03-01T11:16:57;46.17;;;17.85;;
47960;SDS011;33721;48.852;9.936;2023-03-01T11:19:31;45.05;;;17.65;;
47960;SDS011;33721;48.852;9.936;2023-03-01T11:22:14;47.42;;;16.67;;
47960;SDS011;33721;48.852;9.936;2023-03-01T11:24:46;40.05;;;17.27;;
47960;SDS011;33721;48.852;9.936;2023-03-01T11:32:59;40.75;;;17.08;;
47960;SDS011;33721;48.852;9.936;2023-03-01T11:35:26;38.83;;;17.00;;
47960;SDS011;33721;48.852;9.936;2023-03-01T11:40:58;38.22;;;16.60;;
47960;SDS011;33721;48.852;9.936;2023-03-01T11:54:22;39.13;;;16.20;;
47960;SDS011;33721;48.852;9.936;2023-03-01T11:59:39;37.42;;;15.77;;
47960;SDS011;33721;48.852;9.936;2023-03-01T12:10:43;38.83;;;16.17;;
47960;SDS011;33721;48.852;9.936;2023-03-01T12:16:13;42.88;;;17.23;;
47960;SDS011;33721;48.852;9.936;2023-03-01T12:25:08;40.88;;;16.30;;
47960;SDS011;33721;48.852;9.936;2023-03-01T12:30:37;46.53;;;18.38;;
47960;SDS011;33721;48.852;9.936;2023-03-01T12:38:48;40.50;;;17.85;;
47960;SDS011;33721;48.852;9.936;2023-03-01T12:44:27;37.15;;;17.05;;
47960;SDS011;33721;48.852;9.936;2023-03-01T12:47:05;36.50;;;16.92;;
47960;SDS011;33721;48.852;9.936;2023-03-01T12:50:35;47.55;;;20.23;;
47960;SDS011;33721;48.852;9.936;2023-03-01T12:52:56;41.42;;;18.50;;
47960;SDS011;33721;48.852;9.936;2023-03-01T12:55:38;65.43;;;25.10;;
47960;SDS011;33721;48.852;9.936;2023-03-01T12:58:13;50.22;;;20.63;;
47960;SDS011;33721;48.852;9.936;2023-03-01T13:01:10;44.60;;;18.13;;
47960;SDS011;33721;48.852;9.936;2023-03-01T13:11:58;38.22;;;17.58;;
47960;SDS011;33721;48.852;9.936;2023-03-01T13:16:50;43.63;;;19.98;;
47960;SDS011;33721;48.852;9.936;2023-03-01T13:19:23;44.42;;;18.55;;
47960;SDS011;33721;48.852;9.936;2023-03-01T13:21:53;43.22;;;17.45;;
47960;SDS011;33721;48.852;9.936;2023-03-01T13:24:26;43.47;;;18.30;;
47960;SDS011;33721;48.852;9.936;2023-03-01T13:29:49;42.00;;;18.90;;
47960;SDS011;33721;48.852;9.936;2023-03-01T13:34:56;35.17;;;16.02;;
47960;SDS011;33721;48.852;9.936;2023-03-01T13:37:23;40.83;;;17.27;;
47960;SDS011;33721;48.852;9.936;2023-03-01T13:39:51;40.10;;;17.42;;
47960;SDS011;33721;48.852;9.936;2023-03-01T13:45:15;37.17;;;16.90;;
47960;SDS011;33721;48.852;9.936;2023-03-01T13:47:53;38.75;;;17.05;;
47960;SDS011;33721;48.852;9.936;2023-03-01T13:50:24;39.40;;;16.63;;
47960;SDS011;33721;48.852;9.936;2023-03-01T13:55:27;45.35;;;19.73;;
47960;SDS011;33721;48.852;9.936;2023-03-01T13:58:01;45.50;;;19.08;;
47960;SDS011;33721;48.852;9.936;2023-03-01T14:00:38;36.33;;;16.80;;
47960;SDS011;33721;48.852;9.936;2023-03-01T14:03:12;39.97;;;16.92;;
47960;SDS011;33721;48.852;9.936;2023-03-01T14:05:41;38.55;;;16.30;;
47960;SDS011;33721;48.852;9.936;2023-03-01T14:08:22;40.63;;;17.20;;
47960;SDS011;33721;48.852;9.936;2023-03-01T14:18:47;40.75;;;16.42;;
47960;SDS011;33721;48.852;9.936;2023-03-01T14:21:21;38.00;;;16.20;;
47960;SDS011;33721;48.852;9.936;2023-03-01T14:23:47;36.75;;;16.08;;
47960;SDS011;33721;48.852;9.936;2023-03-01T14:26:13;38.50;;;17.30;;
47960;SDS011;33721;48.852;9.936;2023-03-01T14:28:46;41.38;;;17.52;;
47960;SDS011;33721;48.852;9.936;2023-03-01T14:31:34;40.15;;;16.23;;
47960;SDS011;33721;48.852;9.936;2023-03-01T14:34:02;37.60;;;16.73;;
47960;SDS011;33721;48.852;9.936;2023-03-01T14:36:29;37.88;;;16.88;;
47960;SDS011;33721;48.852;9.936;2023-03-01T14:38:56;36.25;;;15.65;;
47960;SDS011;33721;48.852;9.936;2023-03-01T14:41:29;35.35;;;15.30;;
47960;SDS011;33721;48.852;9.936;2023-03-01T14:44:00;37.05;;;14.20;;
47960;SDS011;33721;48.852;9.936;2023-03-01T14:46:36;33.78;;;15.52;;
47960;SDS011;33721;48.852;9.936;2023-03-01T14:49:10;35.92;;;15.65;;
47960;SDS011;33721;48.852;9.936;2023-03-01T14:51:53;35.05;;;16.20;;
47960;SDS011;33721;48.852;9.936;2023-03-01T14:54:41;36.08;;;15.40;;
47960;SDS011;33721;48.852;9.936;2023-03-01T14:57:17;38.03;;;16.27;;
47960;SDS011;33721;48.852;9.936;2023-03-01T14:59:46;37.20;;;15.13;;
47960;SDS011;33721;48.852;9.936;2023-03-01T15:02:15;36.85;;;16.23;;
47960;SDS011;33721;48.852;9.936;2023-03-01T15:05:18;38.42;;;15.27;;
47960;SDS011;33721;48.852;9.936;2023-03-01T15:07:40;35.90;;;14.95;;
47960;SDS011;33721;48.852;9.936;2023-03-01T15:10:13;36.92;;;14.50;;
47960;SDS011;33721;48.852;9.936;2023-03-01T15:12:45;36.40;;;15.57;;
47960;SDS011;33721;48.852;9.936;2023-03-01T15:18:02;34.40;;;14.67;;
47960;SDS011;33721;48.852;9.936;2023-03-01T15:20:30;34.25;;;14.85;;
47960;SDS011;33721;48.852;9.936;2023-03-01T15:23:00;31.70;;;14.07;;
47960;SDS011;33721;48.852;9.936;2023-03-01T15:25:28;34.78;;;14.82;;
47960;SDS011;33721;48.852;9.936;2023-03-01T15:27:56;35.42;;;14.63;;
47960;SDS011;33721;48.852;9.936;2023-03-01T15:30:25;36.92;;;15.10;;
47960;SDS011;33721;48.852;9.936;2023-03-01T15:35:54;37.10;;;14.63;;
47960;SDS011;33721;48.852;9.936;2023-03-01T15:38:56;34.80;;;14.38;;
47960;SDS011;33721;48.852;9.936;2023-03-01T15:41:37;35.45;;;13.48;;
47960;SDS011;33721;48.852;9.936;2023-03-01T15:44:26;37.15;;;15.45;;
47960;SDS011;33721;48.852;9.936;2023-03-01T15:46:53;39.58;;;17.42;;
47960;SDS011;33721;48.852;9.936;2023-03-01T15:49:41;41.78;;;17.02;;
47960;SDS011;33721;48.852;9.936;2023-03-01T15:52:40;39.53;;;16.88;;
47960;SDS011;33721;48.852;9.936;2023-03-01T15:55:26;37.05;;;17.45;;
47960;SDS011;33721;48.852;9.936;2023-03-01T16:00:25;33.55;;;14.18;;
47960;SDS011;33721;48.852;9.936;2023-03-01T16:02:51;43.55;;;16.75;;
47960;SDS011;33721;48.852;9.936;2023-03-01T16:05:18;48.53;;;20.63;;
47960;SDS011;33721;48.852;9.936;2023-03-01T16:07:44;47.45;;;20.30;;
47960;SDS011;33721;48.852;9.936;2023-03-01T16:10:10;46.13;;;20.00;;
47960;SDS011;33721;48.852;9.936;2023-03-01T16:12:35;40.40;;;18.00;;
47960;SDS011;33721;48.852;9.936;2023-03-01T16:15:01;40.05;;;17.98;;
47960;SDS011;33721;48.852;9.936;2023-03-01T16:17:27;43.40;;;17.52;;
47960;SDS011;33721;48.852;9.936;2023-03-01T16:19:53;49.08;;;22.65;;
47960;SDS011;33721;48.852;9.936;2023-03-01T16:22:18;42.15;;;18.17;;
47960;SDS011;33721;48.852;9.936;2023-03-01T16:24:49;41.75;;;19.48;;
47960;SDS011;33721;48.852;9.936;2023-03-01T16:27:15;46.92;;;20.13;;
47960;SDS011;33721;48.852;9.936;2023-03-01T16:29:41;55.28;;;23.98;;
47960;SDS011;33721;48.852;9.936;2023-03-01T16:32:06;46.35;;;20.23;;
47960;SDS011;33721;48.852;9.936;2023-03-01T16:34:32;45.42;;;19.20;;
47960;SDS011;33721;48.852;9.936;2023-03-01T16:36:58;54.28;;;21.00;;
47960;SDS011;33721;48.852;9.936;2023-03-01T16:39:23;56.90;;;21.52;;
47960;SDS011;33721;48.852;9.936;2023-03-01T16:41:49;45.80;;;20.70;;
47960;SDS011;33721;48.852;9.936;2023-03-01T16:44:14;49.92;;;18.35;;
47960;SDS011;33721;48.852;9.936;2023-03-01T16:46:41;42.63;;;17.60;;
47960;SDS011;33721;48.852;9.936;2023-03-01T16:49:07;40.15;;;16.05;;
47960;SDS011;33721;48.852;9.936;2023-03-01T16:51:33;44.78;;;17.88;;
47960;SDS011;33721;48.852;9.936;2023-03-01T16:54:00;41.65;;;16.85;;
47960;SDS011;33721;48.852;9.936;2023-03-01T16:56:26;42.70;;;17.35;;
47960;SDS011;33721;48.852;9.936;2023-03-01T16:58:53;44.35;;;17.75;;
47960;SDS011;33721;48.852;9.936;2023-03-01T17:01:19;41.58;;;17.10;;